createdAt,value
2018-06-24T00:01:05.549Z,1002.26
2018-06-24T00:02:15.613Z,1002.25
2018-06-24T00:03:25.719Z,1002.27
2018-06-24T00:04:35.516Z,1002.26
2018-06-24T00:05:45.604Z,1002.21
2018-06-24T00:06:55.689Z,1002.23
2018-06-24T00:08:05.767Z,1002.24
2018-06-24T00:09:15.843Z,1002.28
2018-06-24T00:10:25.909Z,1002.24
2018-06-24T00:11:35.973Z,1002.25
2018-06-24T00:12:46.037Z,1002.19
2018-06-24T00:13:55.890Z,1002.21
2018-06-24T00:15:06.132Z,1002.13
2018-06-24T00:16:15.949Z,1002.22
2018-06-24T00:17:26.035Z,1002.17
2018-06-24T00:18:36.997Z,1002.29
2018-06-24T00:19:47.067Z,1002.27
2018-06-24T00:20:57.148Z,1002.21
2018-06-24T00:22:07.229Z,1002.18
2018-06-24T00:23:17.296Z,1002.17
2018-06-24T00:24:27.442Z,1002.18
2018-06-24T00:25:37.276Z,1002.17
2018-06-24T00:26:47.378Z,1002.17
2018-06-24T00:27:57.543Z,1002.16
2018-06-24T00:29:07.657Z,1002.17
2018-06-24T00:30:17.744Z,1002.18
2018-06-24T00:31:27.813Z,1002.17
2018-06-24T00:32:37.888Z,1002.17
2018-06-24T00:33:47.957Z,1002.22
2018-06-24T00:34:58.040Z,1002.16
2018-06-24T00:36:08.104Z,1002.17
2018-06-24T00:37:18.364Z,1002.16
2018-06-24T00:38:28.450Z,1002.13
2018-06-24T00:39:38.513Z,1002.14
2018-06-24T00:40:48.587Z,1002.11
2018-06-24T00:41:58.657Z,1002.12
2018-06-24T00:43:08.468Z,1002.08
2018-06-24T00:44:18.534Z,1002.02
2018-06-24T00:45:28.619Z,1002.05
2018-06-24T00:46:38.684Z,1002.07
2018-06-24T00:47:48.754Z,1002.02
2018-06-24T00:48:58.576Z,1002.01
2018-06-24T00:50:08.660Z,1001.97
2018-06-24T00:51:18.745Z,1001.96
2018-06-24T00:52:28.816Z,1001.97
2018-06-24T00:53:38.942Z,1002.04
2018-06-24T00:54:48.741Z,1002.04
2018-06-24T00:55:58.827Z,1002.02
2018-06-24T00:57:08.648Z,1001.97
2018-06-24T00:58:18.719Z,1002.04
2018-06-24T00:59:28.576Z,1002.01
2018-06-24T01:00:38.652Z,1002.03
2018-06-24T01:01:48.732Z,1002
2018-06-24T01:02:58.837Z,1002.03
2018-06-24T01:04:08.906Z,1002.03
2018-06-24T01:05:18.967Z,1001.97
2018-06-24T01:06:29.080Z,1001.97
2018-06-24T01:07:39.155Z,1001.98
2018-06-24T01:08:49.246Z,1001.98
2018-06-24T01:09:59.307Z,1001.97
2018-06-24T01:11:09.384Z,1002.01
2018-06-24T01:12:19.198Z,1001.97
2018-06-24T01:13:29.258Z,1001.95
2018-06-24T01:14:39.315Z,1001.93
2018-06-24T01:15:49.407Z,1001.95
2018-06-24T01:16:59.471Z,1001.99
2018-06-24T01:18:09.547Z,1001.94
2018-06-24T01:19:19.355Z,1001.98
2018-06-24T01:20:29.419Z,1001.94
2018-06-24T01:21:39.226Z,1001.97
2018-06-24T01:22:49.091Z,1001.96
2018-06-24T01:23:59.180Z,1001.97
2018-06-24T01:25:09.254Z,1001.96
2018-06-24T01:26:19.315Z,1001.95
2018-06-24T01:27:29.126Z,1001.93
2018-06-24T01:28:39.199Z,1001.92
2018-06-24T01:29:49.312Z,1001.95
2018-06-24T01:30:59.389Z,1001.91
2018-06-24T01:32:09.190Z,1001.92
2018-06-24T01:33:19.253Z,1001.91
2018-06-24T01:34:29.308Z,1001.96
2018-06-24T01:35:39.395Z,1001.91
2018-06-24T01:36:49.464Z,1001.93
2018-06-24T01:37:59.282Z,1001.94
2018-06-24T01:39:09.347Z,1001.91
2018-06-24T01:40:19.162Z,1001.87
2018-06-24T01:41:29.235Z,1001.87
2018-06-24T01:42:39.316Z,1001.87
2018-06-24T01:43:49.381Z,1001.88
2018-06-24T01:44:59.447Z,1001.82
2018-06-24T01:46:09.565Z,1001.84
2018-06-24T01:47:19.647Z,1001.83
2018-06-24T01:48:29.824Z,1001.81
2018-06-24T01:49:39.625Z,1001.83
2018-06-24T01:50:49.441Z,1001.85
2018-06-24T01:51:59.556Z,1001.88
2018-06-24T01:53:09.364Z,1001.88
2018-06-24T01:54:19.166Z,1001.87
2018-06-24T01:55:29.231Z,1001.86
2018-06-24T01:56:39.373Z,1001.87
2018-06-24T01:57:49.458Z,1001.87
2018-06-24T01:58:59.537Z,1001.86
2018-06-24T02:00:09.601Z,1001.89
2018-06-24T02:01:19.688Z,1001.86
2018-06-24T02:02:29.776Z,1001.83
2018-06-24T02:03:39.886Z,1001.79
2018-06-24T02:04:49.419Z,1001.83
2018-06-24T02:05:59.225Z,1001.83
2018-06-24T02:07:09.287Z,1001.77
2018-06-24T02:08:19.350Z,1001.79
2018-06-24T02:09:29.474Z,1001.82
2018-06-24T02:10:39.274Z,1001.8
2018-06-24T02:11:48.815Z,1001.79
2018-06-24T02:12:58.611Z,1001.78
2018-06-24T02:14:08.701Z,1001.79
2018-06-24T02:15:18.769Z,1001.78
2018-06-24T02:16:28.613Z,1001.75
2018-06-24T02:17:38.677Z,1001.73
2018-06-24T02:18:48.755Z,1001.77
2018-06-24T02:19:58.824Z,1001.78
2018-06-24T02:21:08.954Z,1001.75
2018-06-24T02:22:19.034Z,1001.76
2018-06-24T02:23:29.113Z,1001.76
2018-06-24T02:24:39.164Z,1001.73
2018-06-24T02:25:56.516Z,1001.75
2018-06-24T02:27:16.597Z,1001.75
2018-06-24T02:28:26.700Z,1001.74
2018-06-24T02:29:36.766Z,1001.77
2018-06-24T02:30:46.832Z,1001.74
2018-06-24T02:31:56.946Z,1001.73
2018-06-24T02:33:06.769Z,1001.72
2018-06-24T02:34:16.578Z,1001.75
2018-06-24T02:35:26.654Z,1001.73
2018-06-24T02:36:36.474Z,1001.71
2018-06-24T02:37:46.548Z,1001.68
2018-06-24T02:38:56.612Z,1001.74
2018-06-24T02:40:06.711Z,1001.68
2018-06-24T02:41:16.798Z,1001.7
2018-06-24T02:42:26.862Z,1001.67
2018-06-24T02:43:36.938Z,1001.74
2018-06-24T02:44:46.741Z,1001.74
2018-06-24T02:45:56.806Z,1001.71
2018-06-24T02:47:06.893Z,1001.7
2018-06-24T02:48:16.955Z,1001.71
2018-06-24T02:49:27.045Z,1001.69
2018-06-24T02:50:36.852Z,1001.7
2018-06-24T02:51:46.914Z,1001.68
2018-06-24T02:52:56.998Z,1001.67
2018-06-24T02:54:06.836Z,1001.58
2018-06-24T02:55:16.663Z,1001.59
2018-06-24T02:56:26.746Z,1001.56
2018-06-24T02:57:36.552Z,1001.6
2018-06-24T02:58:46.380Z,1001.6
2018-06-24T02:59:56.236Z,1001.55
2018-06-24T03:01:06.319Z,1001.59
2018-06-24T03:02:16.419Z,1001.58
2018-06-24T03:34:06.788Z,1001.52
2018-06-24T03:35:16.861Z,1001.54
2018-06-24T03:36:26.924Z,1001.53
2018-06-24T03:37:36.979Z,1001.57
2018-06-24T03:38:47.033Z,1001.6
2018-06-24T03:39:56.837Z,1001.52
2018-06-24T03:41:06.680Z,1001.53
2018-06-24T03:42:16.751Z,1001.56
2018-06-24T03:43:26.555Z,1001.55
2018-06-24T03:44:36.626Z,1001.55
2018-06-24T03:45:46.479Z,1001.61
2018-06-24T03:46:56.024Z,1001.62
2018-06-24T03:48:06.076Z,1001.61
2018-06-24T03:49:16.147Z,1001.65
2018-06-24T03:50:26.221Z,1001.67
2018-06-24T03:51:36.274Z,1001.64
2018-06-24T03:52:46.348Z,1001.68
2018-06-24T03:53:56.413Z,1001.72
2018-06-24T03:55:06.490Z,1001.69
2018-06-24T03:56:16.042Z,1001.76
2018-06-24T03:57:26.150Z,1001.72
2018-06-24T03:58:36.224Z,1001.76
2018-06-24T03:59:46.302Z,1001.79
2018-06-24T04:00:56.112Z,1001.77
2018-06-24T04:02:06.176Z,1001.75
2018-06-24T04:03:16.301Z,1001.71
2018-06-24T04:04:26.369Z,1001.73
2018-06-24T04:05:36.181Z,1001.74
2018-06-24T04:06:46.293Z,1001.74
2018-06-24T04:07:56.363Z,1001.71
2018-06-24T04:09:06.443Z,1001.7
2018-06-24T04:10:16.514Z,1001.72
2018-06-24T04:11:26.576Z,1001.72
2018-06-24T04:12:36.401Z,1001.74
2018-06-24T04:13:46.203Z,1001.76
2018-06-24T04:14:56.334Z,1001.73
2018-06-24T04:16:06.384Z,1001.74
2018-06-24T04:17:16.453Z,1001.71
2018-06-24T04:18:26.566Z,1001.75
2018-06-24T04:19:36.632Z,1001.76
2018-06-24T04:20:46.695Z,1001.79
2018-06-24T04:21:56.770Z,1001.74
2018-06-24T04:23:06.837Z,1001.73
2018-06-24T04:24:16.378Z,1001.8
2018-06-24T04:25:26.184Z,1001.81
2018-06-24T04:26:36.313Z,1001.76
2018-06-24T04:27:46.395Z,1001.85
2018-06-24T04:28:56.468Z,1001.83
2018-06-24T04:30:06.546Z,1001.87
2018-06-24T04:31:16.635Z,1001.83
2018-06-24T04:32:26.709Z,1001.87
2018-06-24T04:33:36.804Z,1001.9
2018-06-24T04:34:46.690Z,1001.92
2018-06-24T04:35:56.494Z,1001.88
2018-06-24T04:37:06.571Z,1001.91
2018-06-24T04:38:16.709Z,1001.89
2018-06-24T04:39:26.790Z,1001.9
2018-06-24T04:40:36.605Z,1001.83
2018-06-24T04:41:46.674Z,1001.84
2018-06-24T04:42:56.753Z,1001.86
2018-06-24T04:44:06.555Z,1001.89
2018-06-24T04:45:16.643Z,1001.91
2018-06-24T04:46:26.721Z,1002.17
2018-06-24T04:47:36.790Z,1001.89
2018-06-24T04:48:46.869Z,1001.99
2018-06-24T04:49:56.696Z,1001.93
2018-06-24T04:51:06.770Z,1001.92
2018-06-24T04:52:16.852Z,1001.88
2018-06-24T04:53:26.923Z,1001.91
2018-06-24T04:54:37.032Z,1001.94
2018-06-24T04:55:47.111Z,1001.98
2018-06-24T04:56:57.196Z,1002.14
2018-06-24T04:58:07.281Z,1002.01
2018-06-24T04:59:17.342Z,1001.99
2018-06-24T05:00:27.406Z,1001.95
2018-06-24T05:01:37.484Z,1001.97
2018-06-24T05:02:47.542Z,1001.96
2018-06-24T05:03:57.348Z,1002
2018-06-24T05:05:07.149Z,1001.99
2018-06-24T05:06:17.225Z,1002.05
2018-06-24T05:07:27.478Z,1002.02
2018-06-24T05:08:37.551Z,1002.09
2018-06-24T05:09:47.612Z,1002.09
2018-06-24T05:10:57.679Z,1002.05
2018-06-24T05:12:07.753Z,1002.16
2018-06-24T05:13:17.568Z,1002.1
2018-06-24T05:14:27.636Z,1002.08
2018-06-24T05:15:37.458Z,1002.04
2018-06-24T05:16:47.259Z,1002.04
2018-06-24T05:17:57.327Z,1002.06
2018-06-24T05:19:06.888Z,1002.04
2018-06-24T05:20:16.939Z,1002.03
2018-06-24T05:21:27.014Z,1002.01
2018-06-24T05:22:37.092Z,1002.01
2018-06-24T05:23:47.177Z,1001.99
2018-06-24T05:24:57.276Z,1001.99
2018-06-24T05:26:07.346Z,1002.04
2018-06-24T05:27:17.419Z,1002.01
2018-06-24T05:28:27.554Z,1001.99
2018-06-24T05:29:37.636Z,1002.06
2018-06-24T05:30:47.442Z,1002
2018-06-24T05:31:57.508Z,1001.99
2018-06-24T05:33:07.588Z,1002.06
2018-06-24T05:34:17.406Z,1002.05
2018-06-24T05:35:27.484Z,1002.04
2018-06-24T05:36:37.551Z,1002.03
2018-06-24T05:37:47.115Z,1002.05
2018-06-24T05:38:57.025Z,1002.06
2018-06-24T05:40:06.840Z,1002.06
2018-06-24T05:41:16.893Z,1002.03
2018-06-24T05:42:27.027Z,1002.02
2018-06-24T05:43:37.116Z,1001.95
2018-06-24T05:44:47.236Z,1002.08
2018-06-24T05:45:57.308Z,1001.99
2018-06-24T05:47:07.392Z,1002.04
2018-06-24T05:48:17.472Z,1001.96
2018-06-24T05:49:27.559Z,1002.01
2018-06-24T05:50:37.645Z,1002
2018-06-24T05:51:47.730Z,1001.96
2018-06-24T05:52:57.812Z,1001.98
2018-06-24T05:54:07.930Z,1002
2018-06-24T05:55:17.913Z,1002
2018-06-24T05:56:27.987Z,1002
2018-06-24T05:57:38.072Z,1001.98
2018-06-24T05:58:47.620Z,1002.04
2018-06-24T05:59:57.695Z,1002.01
2018-06-24T06:01:07.784Z,1002.02
2018-06-24T06:02:17.591Z,1002.02
2018-06-24T06:03:27.661Z,1002.06
2018-06-24T06:04:37.482Z,1002.04
2018-06-24T06:05:47.670Z,1002.02
2018-06-24T06:06:57.471Z,1002.09
2018-06-24T06:08:07.301Z,1002.04
2018-06-24T06:09:17.363Z,1002.12
2018-06-24T06:10:27.283Z,1002.1
2018-06-24T06:11:37.742Z,1002.06
2018-06-24T06:12:47.893Z,1002.08
2018-06-24T06:13:57.446Z,1002.16
2018-06-24T06:15:07.537Z,1002.17
2018-06-24T06:16:17.344Z,1002.21
2018-06-24T06:17:27.415Z,1002.14
2018-06-24T06:18:37.231Z,1002.2
2018-06-24T06:19:47.319Z,1002.21
2018-06-24T06:20:57.404Z,1002.18
2018-06-24T06:22:07.219Z,1002.23
2018-06-24T06:23:17.344Z,1002.17
2018-06-24T06:24:27.164Z,1002.2
2018-06-24T06:25:36.969Z,1002.19
2018-06-24T06:26:47.290Z,1002.23
2018-06-24T06:27:57.375Z,1002.2
2018-06-24T06:29:07.198Z,1002.22
2018-06-24T06:30:17.033Z,1002.22
2018-06-24T06:31:27.759Z,1002.27
2018-06-24T06:32:37.594Z,1002.27
2018-06-24T06:33:47.669Z,1002.25
2018-06-24T06:34:57.474Z,1002.28
2018-06-24T06:36:07.617Z,1002.31
2018-06-24T06:37:17.698Z,1002.28
2018-06-24T06:38:27.788Z,1002.28
2018-06-24T06:39:37.602Z,1002.24
2018-06-24T06:40:47.690Z,1002.31
2018-06-24T06:41:57.769Z,1002.27
2018-06-24T06:43:07.841Z,1002.25
2018-06-24T06:44:17.932Z,1002.2
2018-06-24T06:45:28.217Z,1002.23
2018-06-24T06:46:39.865Z,1002.26
2018-06-24T06:47:49.674Z,1002.16
2018-06-24T06:48:59.752Z,1002.19
2018-06-24T06:50:09.828Z,1002.17
2018-06-24T06:51:19.907Z,1002.17
2018-06-24T06:52:30.004Z,1002.21
2018-06-24T06:53:40.075Z,1002.2
2018-06-24T06:54:49.877Z,1002.28
2018-06-24T06:56:00.022Z,1002.32
2018-06-24T06:57:10.139Z,1002.48
2018-06-24T06:58:20.220Z,1002.28
2018-06-24T06:59:30.338Z,1002.26
2018-06-24T07:00:40.161Z,1002.23
2018-06-24T07:01:49.967Z,1002.31
2018-06-24T07:03:00.047Z,1002.22
2018-06-24T07:04:10.123Z,1002.21
2018-06-24T07:05:20.195Z,1002.23
2018-06-24T07:06:30.273Z,1002.21
2018-06-24T07:07:40.343Z,1002.22
2018-06-24T07:08:50.423Z,1002.22
2018-06-24T07:10:00.576Z,1002.19
2018-06-24T07:11:10.650Z,1002.11
2018-06-24T07:12:20.475Z,1002.17
2018-06-24T07:13:30.563Z,1002.29
2018-06-24T07:14:40.635Z,1002.3
2018-06-24T07:15:50.452Z,1002.2
2018-06-24T07:17:00.550Z,1002.18
2018-06-24T07:18:10.618Z,1002.16
2018-06-24T07:19:20.714Z,1002.14
2018-06-24T07:20:30.516Z,1002.13
2018-06-24T07:21:40.341Z,1002.14
2018-06-24T07:22:50.408Z,1002.14
2018-06-24T07:24:00.472Z,1002.2
2018-06-24T07:25:10.593Z,1002.12
2018-06-24T07:26:20.139Z,1002.07
2018-06-24T07:27:30.298Z,1002.14
2018-06-24T07:28:40.522Z,1002.13
2018-06-24T07:29:50.596Z,1002.11
2018-06-24T07:31:00.413Z,1002.14
2018-06-24T07:32:10.505Z,1002.11
2018-06-24T07:33:20.385Z,1002.12
2018-06-24T07:34:30.878Z,1002.1
2018-06-24T07:35:40.748Z,1002.17
2018-06-24T07:36:50.821Z,1002.19
2018-06-24T07:38:00.914Z,1002.13
2018-06-24T07:39:11.031Z,1002.11
2018-06-24T07:40:21.632Z,1002.1
2018-06-24T07:41:31.191Z,1002.05
2018-06-24T07:42:41.279Z,1002.07
2018-06-24T07:43:51.382Z,1002.13
2018-06-24T07:45:01.490Z,1002.12
2018-06-24T07:46:11.307Z,1002.12
2018-06-24T07:47:21.383Z,1002.05
2018-06-24T07:48:31.475Z,1002.11
2018-06-24T07:49:41.546Z,1002.07
2018-06-24T07:50:51.629Z,1002.04
2018-06-24T07:52:01.473Z,1002.06
2018-06-24T07:53:11.569Z,1002.04
2018-06-24T07:54:21.390Z,1002.03
2018-06-24T07:55:31.485Z,1002.05
2018-06-24T07:56:41.021Z,1002.08
2018-06-24T07:57:50.856Z,1002.09
2018-06-24T07:59:00.674Z,1002.07
2018-06-24T08:00:10.771Z,1002.1
2018-06-24T08:01:20.854Z,1002.1
2018-06-24T08:02:30.151Z,1002.07
2018-06-24T08:03:40.226Z,1002.11
2018-06-24T08:04:50.331Z,1002.11
2018-06-24T08:06:00.432Z,1002.14
2018-06-24T08:07:10.519Z,1002.17
2018-06-24T08:08:20.651Z,1002.15
2018-06-24T08:09:30.740Z,1002.13
2018-06-24T08:10:40.854Z,1002.13
2018-06-24T08:11:50.694Z,1002.07
2018-06-24T08:13:00.771Z,1002.11
2018-06-24T08:14:10.886Z,1002.11
2018-06-24T08:15:20.968Z,1002.12
2018-06-24T08:16:31.047Z,1002.13
2018-06-24T08:17:41.131Z,1002.11
2018-06-24T08:18:51.227Z,1002.05
2018-06-24T08:20:01.360Z,1001.99
2018-06-24T08:21:11.452Z,1001.92
2018-06-24T08:22:21.597Z,1001.91
2018-06-24T08:23:31.660Z,1001.89
2018-06-24T08:24:41.761Z,1001.94
2018-06-24T08:25:51.856Z,1001.87
2018-06-24T08:27:01.950Z,1001.94
2018-06-24T08:28:12.034Z,1001.94
2018-06-24T08:29:22.124Z,1002.01
2018-06-24T08:30:31.946Z,1001.98
2018-06-24T08:31:42.124Z,1002.12
2018-06-24T08:32:52.105Z,1002.11
2018-06-24T08:34:02.197Z,1002.07
2018-06-24T08:35:12.016Z,1002.02
2018-06-24T08:36:22.123Z,1002.06
2018-06-24T08:37:32.221Z,1002.08
2018-06-24T08:38:42.322Z,1002.1
2018-06-24T08:39:52.406Z,1002.07
2018-06-24T08:41:02.494Z,1002.12
2018-06-24T08:42:12.578Z,1002.05
2018-06-24T08:43:22.668Z,1002.05
2018-06-24T08:44:32.759Z,1001.97
2018-06-24T08:45:42.561Z,1001.94
2018-06-24T08:46:52.386Z,1001.93
2018-06-24T08:48:02.456Z,1001.93
2018-06-24T08:49:12.374Z,1001.98
2018-06-24T08:50:22.485Z,1001.96
2018-06-24T08:51:32.319Z,1001.95
2018-06-24T08:52:42.194Z,1001.99
2018-06-24T08:53:52.557Z,1001.99
2018-06-24T08:55:02.708Z,1001.91
2018-06-24T08:56:12.782Z,1001.88
2018-06-24T08:57:22.867Z,1001.89
2018-06-24T08:58:32.926Z,1001.95
2018-06-24T08:59:43.011Z,1001.97
2018-06-24T09:00:53.147Z,1001.95
2018-06-24T09:02:03.287Z,1001.88
2018-06-24T09:03:13.114Z,1001.94
2018-06-24T09:04:23.200Z,1001.85
2018-06-24T09:05:33.278Z,1001.89
2018-06-24T09:06:43.126Z,1001.88
2018-06-24T09:07:53.219Z,1001.96
2018-06-24T09:09:02.848Z,1001.92
2018-06-24T09:10:12.961Z,1001.99
2018-06-24T09:11:23.051Z,1001.85
2018-06-24T09:12:33.166Z,1001.89
2018-06-24T09:13:43.276Z,1001.89
2018-06-24T09:14:53.128Z,1001.94
2018-06-24T09:16:03.322Z,1001.89
2018-06-24T09:17:13.416Z,1001.79
2018-06-24T09:18:23.305Z,1001.99
2018-06-24T09:19:33.142Z,1002.06
2018-06-24T09:20:42.957Z,1002.04
2018-06-24T09:21:53.055Z,1001.89
2018-06-24T09:23:03.297Z,1001.93
2018-06-24T09:24:12.927Z,1001.92
2018-06-24T09:25:23.011Z,1001.95
2018-06-24T09:26:33.115Z,1001.94
2018-06-24T09:27:43.252Z,1001.95
2018-06-24T09:28:52.889Z,1001.96
2018-06-24T09:30:02.460Z,1001.89
2018-06-24T09:31:12.305Z,1001.91
2018-06-24T09:32:22.423Z,1001.91
2018-06-24T09:33:32.507Z,1001.83
2018-06-24T09:34:42.347Z,1001.85
2018-06-24T09:35:52.505Z,1001.81
2018-06-24T09:37:02.600Z,1001.84
2018-06-24T09:38:11.907Z,1001.88
2018-06-24T09:39:22.009Z,1001.92
2018-06-24T09:40:31.832Z,1001.85
2018-06-24T09:41:42.017Z,1001.83
2018-06-24T09:42:52.135Z,1001.89
2018-06-24T09:44:02.256Z,1001.83
2018-06-24T09:45:12.380Z,1001.88
2018-06-24T09:46:21.953Z,1001.82
2018-06-24T09:47:32.136Z,1001.85
2018-06-24T09:48:41.976Z,1001.91
2018-06-24T09:49:51.804Z,1001.94
2018-06-24T09:51:01.614Z,1001.93
2018-06-24T09:52:11.709Z,1001.88
2018-06-24T09:53:21.809Z,1001.88
2018-06-24T09:54:31.637Z,1001.89
2018-06-24T09:55:41.728Z,1001.84
2018-06-24T09:56:51.305Z,1001.8
2018-06-24T09:58:00.881Z,1001.78
2018-06-24T09:59:11.031Z,1001.78
2018-06-24T10:00:21.124Z,1001.75
2018-06-24T10:01:31.194Z,1001.71
2018-06-24T10:02:41.284Z,1001.68
2018-06-24T10:03:51.391Z,1001.67
2018-06-24T10:05:01.239Z,1001.67
2018-06-24T10:06:11.320Z,1001.76
2018-06-24T10:07:21.412Z,1001.73
2018-06-24T10:08:30.974Z,1001.69
2018-06-24T10:09:41.077Z,1001.74
2018-06-24T10:10:50.898Z,1001.72
2018-06-24T10:12:01.057Z,1001.63
2018-06-24T10:13:11.164Z,1001.66
2018-06-24T10:14:21.250Z,1001.65
2018-06-24T10:15:31.071Z,1001.62
2018-06-24T10:16:41.170Z,1001.63
2018-06-24T10:17:51.261Z,1001.67
2018-06-24T10:19:01.425Z,1001.64
2018-06-24T10:20:11.563Z,1001.57
2018-06-24T10:21:21.655Z,1001.51
2018-06-24T10:22:31.485Z,1001.57
2018-06-24T10:23:41.339Z,1001.54
2018-06-24T10:24:51.163Z,1001.56
2018-06-24T10:26:01.247Z,1001.58
2018-06-24T10:27:11.351Z,1001.59
2018-06-24T10:28:21.434Z,1001.63
2018-06-24T10:29:31.323Z,1001.63
2018-06-24T10:30:41.514Z,1001.61
2018-06-24T10:31:51.345Z,1001.6
2018-06-24T10:33:01.434Z,1001.55
2018-06-24T10:34:11.258Z,1001.52
2018-06-24T10:35:21.353Z,1001.46
2018-06-24T10:36:31.425Z,1001.44
2018-06-24T10:37:41.283Z,1001.48
2018-06-24T10:38:51.369Z,1001.44
2018-06-24T10:40:01.490Z,1001.47
2018-06-24T10:41:11.403Z,1001.42
2018-06-24T10:42:21.792Z,1001.41
2018-06-24T10:43:31.882Z,1001.4
2018-06-24T10:44:41.984Z,1001.35
2018-06-24T10:45:51.809Z,1001.41
2018-06-24T10:47:01.937Z,1001.39
2018-06-24T10:48:12.029Z,1001.46
2018-06-24T10:49:21.850Z,1001.46
2018-06-24T10:50:31.686Z,1001.48
2018-06-24T10:51:41.759Z,1001.53
2018-06-24T10:52:51.888Z,1001.53
2018-06-24T10:54:01.966Z,1001.53
2018-06-24T10:55:12.059Z,1001.57
2018-06-24T10:56:22.184Z,1001.51
2018-06-24T10:57:32.274Z,1001.5
2018-06-24T10:58:42.369Z,1001.47
2018-06-24T10:59:52.212Z,1001.52
2018-06-24T11:01:02.361Z,1001.54
2018-06-24T11:02:12.500Z,1001.53
2018-06-24T11:03:22.640Z,1001.55
2018-06-24T11:04:32.755Z,1001.55
2018-06-24T11:05:42.854Z,1001.46
2018-06-24T11:06:52.987Z,1001.52
2018-06-24T11:08:03.087Z,1001.52
2018-06-24T11:09:13.182Z,1001.4
2018-06-24T11:10:23.274Z,1001.42
2018-06-24T11:11:33.376Z,1001.37
2018-06-24T11:12:43.531Z,1001.3
2018-06-24T11:13:53.378Z,1001.33
2018-06-24T11:15:03.226Z,1001.28
2018-06-24T11:16:13.077Z,1001.29
2018-06-24T11:17:22.936Z,1001.34
2018-06-24T11:18:33.025Z,1001.34
2018-06-24T11:19:43.192Z,1001.32
2018-06-24T11:20:53.020Z,1001.34
2018-06-24T11:22:02.329Z,1001.3
2018-06-24T11:23:12.163Z,1001.29
2018-06-24T11:24:22.263Z,1001.39
2018-06-24T11:25:32.106Z,1001.32
2018-06-24T11:26:42.190Z,1001.4
2018-06-24T11:27:52.019Z,1001.44
2018-06-24T11:29:02.092Z,1001.48
2018-06-24T11:30:11.909Z,1001.43
2018-06-24T11:31:21.996Z,1001.37
2018-06-24T11:32:32.070Z,1001.37
2018-06-24T11:33:41.890Z,1001.37
2018-06-24T11:34:51.973Z,1001.32
2018-06-24T11:36:02.104Z,1001.34
2018-06-24T11:37:12.191Z,1001.33
2018-06-24T11:38:22.061Z,1001.26
2018-06-24T11:39:32.155Z,1001.25
2018-06-24T11:40:42.228Z,1001.26
2018-06-24T11:41:52.054Z,1001.21
2018-06-24T11:43:02.167Z,1001.2
2018-06-24T11:44:12.274Z,1001.22
2018-06-24T11:45:22.111Z,1001.18
2018-06-24T11:46:32.201Z,1001.21
2018-06-24T11:47:42.296Z,1001.23
2018-06-24T11:48:52.633Z,1001.1
2018-06-24T11:50:02.777Z,1001.1
2018-06-24T11:51:12.877Z,1001.15
2018-06-24T11:52:22.721Z,1001.18
2018-06-24T11:53:32.894Z,1001.06
2018-06-24T11:54:42.976Z,1001.03
2018-06-24T11:55:52.840Z,1001.03
2018-06-24T11:57:03.029Z,1000.95
2018-06-24T11:58:13.210Z,1000.93
2018-06-24T11:59:23.317Z,1000.97
2018-06-24T12:00:33.405Z,1001.06
2018-06-24T12:01:43.482Z,1000.9
2018-06-24T12:02:53.659Z,1000.97
2018-06-24T12:04:03.833Z,1000.9
2018-06-24T12:05:13.776Z,1000.92
2018-06-24T12:06:23.604Z,1000.9
2018-06-24T12:07:33.692Z,1000.98
2018-06-24T12:08:43.780Z,1000.81
2018-06-24T12:09:54.040Z,1000.75
2018-06-24T12:11:04.200Z,1000.78
2018-06-24T12:12:14.017Z,1000.76
2018-06-24T12:13:23.856Z,1000.74
2018-06-24T12:14:33.962Z,1000.61
2018-06-24T12:15:44.055Z,1000.73
2018-06-24T12:16:54.194Z,1000.58
2018-06-24T12:18:04.326Z,1000.58
2018-06-24T12:19:14.781Z,1000.65
2018-06-24T12:20:24.602Z,1000.52
2018-06-24T12:21:34.675Z,1000.56
2018-06-24T12:22:44.513Z,1000.6
2018-06-24T12:23:54.618Z,1000.58
2018-06-24T12:25:04.705Z,1000.5
2018-06-24T12:26:14.805Z,1000.63
2018-06-24T12:27:24.622Z,1000.53
2018-06-24T12:28:34.794Z,1000.53
2018-06-24T12:29:44.900Z,1000.57
2018-06-24T12:30:55.026Z,1000.52
2018-06-24T12:32:04.909Z,1000.43
2018-06-24T12:33:15.008Z,1000.44
2018-06-24T12:34:24.582Z,1000.43
2018-06-24T12:35:34.164Z,1000.49
2018-06-24T12:36:44.236Z,1000.53
2018-06-24T12:37:54.344Z,1000.5
2018-06-24T12:39:04.454Z,1000.46
2018-06-24T12:40:14.569Z,1000.53
2018-06-24T12:41:24.673Z,1000.49
2018-06-24T12:42:34.763Z,1000.46
2018-06-24T12:43:44.895Z,1000.45
2018-06-24T12:44:54.745Z,1000.43
2018-06-24T12:46:04.890Z,1000.48
2018-06-24T12:47:14.985Z,1000.43
2018-06-24T12:48:25.107Z,1000.34
2018-06-24T12:49:35.224Z,1000.31
2018-06-24T12:50:45.083Z,1000.29
2018-06-24T12:51:55.235Z,1000.31
2018-06-24T12:53:05.320Z,1000.3
2018-06-24T12:54:15.405Z,1000.26
2018-06-24T12:55:25.495Z,1000.23
2018-06-24T12:56:35.590Z,1000.32
2018-06-24T12:57:45.408Z,1000.3
2018-06-24T12:58:55.651Z,1000.24
2018-06-24T13:00:07.347Z,1000.19
2018-06-24T13:01:19.799Z,1000.21
2018-06-24T13:02:29.910Z,1000.25
2018-06-24T13:03:40.036Z,1000.26
2018-06-24T13:04:50.119Z,1000.23
2018-06-24T13:06:00.217Z,1000.26
2018-06-24T13:07:10.288Z,1000.25
2018-06-24T13:08:20.389Z,1000.24
2018-06-24T13:09:30.535Z,1000.19
2018-06-24T13:10:40.341Z,1000.27
2018-06-24T13:11:50.173Z,1000.23
2018-06-24T13:13:00.265Z,1000.2
2018-06-24T13:14:10.429Z,1000.2
2018-06-24T13:15:20.775Z,1000.22
2018-06-24T13:16:30.884Z,1000.19
2018-06-24T13:17:41.023Z,1000.23
2018-06-24T13:18:51.152Z,1000.06
2018-06-24T13:20:01.225Z,1000.05
2018-06-24T13:21:11.394Z,999.91
2018-06-24T13:22:21.765Z,999.99
2018-06-24T13:23:31.836Z,1000.14
2018-06-24T13:24:41.975Z,1000.17
2018-06-24T13:25:52.053Z,1000.16
2018-06-24T13:27:01.951Z,1000.13
2018-06-24T13:28:12.055Z,1000.18
2018-06-24T13:29:22.132Z,1000.24
2018-06-24T13:30:32.215Z,1000.25
2018-06-24T13:31:42.347Z,1000.27
2018-06-24T13:32:52.217Z,1000.23
2018-06-24T13:34:02.330Z,1000.2
2018-06-24T13:35:12.437Z,1000.26
2018-06-24T13:36:22.265Z,1000.26
2018-06-24T13:37:32.346Z,1000.25
2018-06-24T13:38:42.440Z,1000.28
2018-06-24T13:39:52.511Z,1000.19
2018-06-24T13:41:02.080Z,1000.24
2018-06-24T13:42:12.184Z,1000.24
2018-06-24T13:43:22.615Z,1000.24
2018-06-24T13:44:32.463Z,1000.24
2018-06-24T13:45:42.543Z,1000.23
2018-06-24T13:46:52.660Z,1000.25
2018-06-24T13:48:02.774Z,1000.22
2018-06-24T13:49:12.621Z,1000.2
2018-06-24T13:50:22.712Z,1000.25
2018-06-24T13:51:32.566Z,1000.16
2018-06-24T13:52:42.410Z,1000.18
2018-06-24T13:53:52.499Z,1000.16
2018-06-24T13:55:02.583Z,1000.17
2018-06-24T13:56:12.661Z,1000.23
2018-06-24T13:57:22.746Z,1000.16
2018-06-24T13:58:32.816Z,1000.16
2018-06-24T13:59:42.644Z,1000.16
2018-06-24T14:00:52.732Z,1000.1
2018-06-24T14:02:02.548Z,1000.12
2018-06-24T14:03:12.939Z,1000.1
2018-06-24T14:04:23.037Z,1000.14
2018-06-24T14:05:33.178Z,1000.1
2018-06-24T14:06:42.802Z,1000.1
2018-06-24T14:07:52.909Z,1000.11
2018-06-24T14:09:02.376Z,1000.07
2018-06-24T14:10:12.466Z,1000.07
2018-06-24T14:11:22.060Z,1000.14
2018-06-24T14:12:32.180Z,1000.15
2018-06-24T14:13:42.320Z,1000.13
2018-06-24T14:14:52.400Z,1000.16
2018-06-24T14:16:02.488Z,1000.15
2018-06-24T14:17:12.630Z,1000.16
2018-06-24T14:18:22.907Z,1000.14
2018-06-24T14:19:32.838Z,1000.15
2018-06-24T14:20:42.930Z,1000.07
2018-06-24T14:21:52.767Z,1000.08
2018-06-24T14:23:02.921Z,1000.07
2018-06-24T14:24:12.872Z,1000.1
2018-06-24T14:25:23.050Z,1000.07
2018-06-24T14:26:32.865Z,1000.12
2018-06-24T14:27:42.968Z,1000.11
2018-06-24T14:28:53.107Z,1000.09
2018-06-24T14:30:03.592Z,1000.08
2018-06-24T14:31:13.855Z,1000.12
2018-06-24T14:32:23.967Z,1000.14
2018-06-24T14:33:34.068Z,1000.06
2018-06-24T14:34:43.902Z,1000.05
2018-06-24T14:35:53.993Z,1000.13
2018-06-24T14:37:04.192Z,1000.1
2018-06-24T14:38:14.346Z,1000.11
2018-06-24T14:39:24.425Z,1000.09
2018-06-24T14:40:34.504Z,1000.11
2018-06-24T14:41:44.322Z,1000.08